createdAt,value
2023-05-09T00:00:06.243Z,94832.00
2023-05-09T00:01:06.227Z,94832.00
2023-05-09T00:02:06.314Z,94832.00
2023-05-09T00:03:06.379Z,94834.00
2023-05-09T00:04:06.370Z,94832.00
2023-05-09T00:05:06.325Z,94830.00
2023-05-09T00:06:06.372Z,94826.00
2023-05-09T00:07:06.422Z,94828.00
2023-05-09T00:08:06.433Z,94830.00
2023-05-09T00:09:06.475Z,94826.00
2023-05-09T00:10:06.508Z,94826.00
2023-05-09T00:11:06.611Z,94826.00
2023-05-09T00:12:06.579Z,94824.00
2023-05-09T00:13:06.621Z,94822.00
2023-05-09T00:14:06.621Z,94822.00
2023-05-09T00:15:06.647Z,94822.00
2023-05-09T00:16:06.724Z,94820.00
2023-05-09T00:17:06.723Z,94820.00
2023-05-09T00:18:06.741Z,94820.00
2023-05-09T00:19:06.789Z,94818.00
2023-05-09T00:20:06.802Z,94818.00
2023-05-09T00:21:06.848Z,94816.00
2023-05-09T00:22:06.866Z,94816.00
2023-05-09T00:23:06.893Z,94816.00
2023-05-09T00:24:06.950Z,94816.00
2023-05-09T00:25:06.968Z,94816.00
2023-05-09T00:26:06.989Z,94812.00
2023-05-09T00:27:07.122Z,94812.00
2023-05-09T00:28:07.106Z,94809.00
2023-05-09T00:29:07.106Z,94811.00
2023-05-09T00:30:07.148Z,94809.00
2023-05-09T00:31:07.179Z,94809.00
2023-05-09T00:32:07.260Z,94809.00
2023-05-09T00:33:07.269Z,94809.00
2023-05-09T00:34:07.286Z,94807.00
2023-05-09T00:35:07.316Z,94807.00
2023-05-09T00:36:07.340Z,94805.00
2023-05-09T00:37:07.379Z,94807.00
2023-05-09T00:38:07.412Z,94805.00
2023-05-09T00:39:07.424Z,94805.00
2023-05-09T00:40:07.468Z,94805.00
2023-05-09T00:41:07.496Z,94807.00
2023-05-09T00:42:07.536Z,94805.00
2023-05-09T00:43:07.646Z,94805.00
2023-05-09T00:44:07.608Z,94805.00
2023-05-09T00:45:07.666Z,94803.00
2023-05-09T00:46:07.706Z,94799.00
2023-05-09T00:47:07.703Z,94803.00
2023-05-09T00:48:07.801Z,94799.00
2023-05-09T00:49:07.758Z,94797.00
2023-05-09T00:50:07.789Z,94801.00
2023-05-09T00:51:07.841Z,94797.00
2023-05-09T00:52:07.878Z,94797.00
2023-05-09T00:53:07.928Z,94791.00
2023-05-09T00:54:09.289Z,94793.00
2023-05-09T00:55:07.961Z,94793.00
2023-05-09T00:56:07.999Z,94793.00
2023-05-09T00:57:08.051Z,94791.00
2023-05-09T00:58:08.070Z,94791.00
2023-05-09T00:59:08.192Z,94791.00
2023-05-09T01:00:08.185Z,94791.00
2023-05-09T01:01:08.219Z,94791.00
2023-05-09T01:02:08.219Z,94785.00
2023-05-09T01:03:08.486Z,94783.00
2023-05-09T01:04:08.334Z,94783.00
2023-05-09T01:05:08.338Z,94783.00
2023-05-09T01:06:08.382Z,94783.00
2023-05-09T01:07:08.429Z,94781.00
2023-05-09T01:08:08.468Z,94781.00
2023-05-09T01:09:08.509Z,94781.00
2023-05-09T01:10:08.578Z,94779.00
2023-05-09T01:11:08.580Z,94779.00
2023-05-09T01:12:08.616Z,94779.00
2023-05-09T01:13:08.725Z,94779.00
2023-05-09T01:14:08.697Z,94777.00
2023-05-09T01:15:08.814Z,94779.00
2023-05-09T01:16:08.894Z,94775.00
2023-05-09T01:17:08.820Z,94775.00
2023-05-09T01:18:08.891Z,94773.00
2023-05-09T01:19:08.988Z,94769.00
2023-05-09T01:20:08.950Z,94771.00
2023-05-09T01:21:08.993Z,94771.00
2023-05-09T01:22:09.049Z,94769.00
2023-05-09T01:23:09.049Z,94771.00
2023-05-09T01:24:09.080Z,94769.00
2023-05-09T01:25:09.129Z,94771.00
2023-05-09T01:26:09.149Z,94771.00
2023-05-09T01:27:09.215Z,94769.00
2023-05-09T01:28:09.256Z,94769.00
2023-05-09T01:29:09.277Z,94769.00
2023-05-09T01:30:09.326Z,94767.00
2023-05-09T01:31:09.496Z,94765.00
2023-05-09T01:32:09.450Z,94765.00
2023-05-09T01:33:09.508Z,94764.00
2023-05-09T01:34:09.487Z,94764.00
2023-05-09T01:35:09.533Z,94765.00
2023-05-09T01:36:09.575Z,94765.00
2023-05-09T01:37:09.629Z,94765.00
2023-05-09T01:38:09.648Z,94767.00
2023-05-09T01:39:09.696Z,94767.00
2023-05-09T01:40:09.748Z,94767.00
2023-05-09T01:41:09.792Z,94767.00
2023-05-09T01:42:09.830Z,94767.00
2023-05-09T01:43:09.947Z,94767.00
2023-05-09T01:44:09.966Z,94767.00
2023-05-09T01:45:09.969Z,94767.00
2023-05-09T01:46:10.021Z,94767.00
2023-05-09T01:47:10.114Z,94767.00
2023-05-09T01:48:10.149Z,94769.00
2023-05-09T01:49:10.121Z,94767.00
2023-05-09T01:50:10.169Z,94765.00
2023-05-09T01:51:10.209Z,94769.00
2023-05-09T01:52:10.263Z,94765.00
2023-05-09T01:53:10.304Z,94765.00
2023-05-09T01:54:10.331Z,94765.00
2023-05-09T01:55:10.383Z,94764.00
2023-05-09T01:56:10.433Z,94767.00
2023-05-09T01:57:10.479Z,94762.00
2023-05-09T01:58:10.518Z,94762.00
2023-05-09T01:59:10.576Z,94762.00
2023-05-09T02:00:10.630Z,94760.00
2023-05-09T02:01:10.705Z,94758.00
2023-05-09T02:02:10.743Z,94758.00
2023-05-09T02:03:10.850Z,94758.00
2023-05-09T02:04:10.794Z,94758.00
2023-05-09T02:05:10.829Z,94758.00
2023-05-09T02:06:10.865Z,94756.00
2023-05-09T02:07:10.918Z,94756.00
2023-05-09T02:08:10.977Z,94756.00
2023-05-09T02:09:11.011Z,94754.00
2023-05-09T02:10:11.056Z,94752.00
2023-05-09T02:11:11.093Z,94752.00
2023-05-09T02:12:11.135Z,94748.00
2023-05-09T02:13:11.241Z,94748.00
2023-05-09T02:14:11.240Z,94748.00
2023-05-09T02:15:11.311Z,94746.00
2023-05-09T02:16:11.336Z,94748.00
2023-05-09T02:17:11.422Z,94744.00
2023-05-09T02:18:11.460Z,94748.00
2023-05-09T02:19:11.557Z,94746.00
2023-05-09T02:20:11.603Z,94742.00
2023-05-09T02:21:11.629Z,94742.00
2023-05-09T02:22:11.601Z,94742.00
2023-05-09T02:23:11.657Z,94742.00
2023-05-09T02:24:11.698Z,94742.00
2023-05-09T02:25:11.804Z,94740.00
2023-05-09T02:26:11.804Z,94740.00
2023-05-09T02:27:11.924Z,94738.00
2023-05-09T02:28:11.901Z,94738.00
2023-05-09T02:29:11.916Z,94736.00
2023-05-09T02:30:11.970Z,94736.00
2023-05-09T02:31:12.011Z,94736.00
2023-05-09T02:32:12.148Z,94736.00
2023-05-09T02:33:12.129Z,94736.00
2023-05-09T02:34:12.150Z,94738.00
2023-05-09T02:35:12.427Z,94740.00
2023-05-09T02:36:12.250Z,94738.00
2023-05-09T02:37:12.448Z,94740.00
2023-05-09T02:38:12.374Z,94740.00
2023-05-09T02:39:12.381Z,94740.00
2023-05-09T02:40:12.435Z,94736.00
2023-05-09T02:41:12.467Z,94738.00
2023-05-09T02:42:12.511Z,94738.00
2023-05-09T02:43:12.560Z,94734.00
2023-05-09T02:44:12.625Z,94736.00
2023-05-09T02:45:12.790Z,94736.00
2023-05-09T02:46:12.730Z,94736.00
2023-05-09T02:47:12.743Z,94732.00
2023-05-09T02:48:12.858Z,94732.00
2023-05-09T02:49:22.756Z,94732.00
2023-05-09T02:50:13.824Z,94734.00
2023-05-09T02:51:12.888Z,94734.00
2023-05-09T02:52:12.850Z,94734.00
2023-05-09T02:53:12.810Z,94734.00
2023-05-09T02:54:12.846Z,94734.00
2023-05-09T02:55:12.917Z,94732.00
2023-05-09T02:56:12.790Z,94734.00
2023-05-09T02:57:12.768Z,94732.00
2023-05-09T02:58:14.797Z,94732.00
2023-05-09T02:59:12.754Z,94732.00
2023-05-09T03:00:12.792Z,94728.00
2023-05-09T03:01:12.897Z,94730.00
2023-05-09T03:02:12.908Z,94730.00
2023-05-09T03:03:13.056Z,94730.00
2023-05-09T03:04:13.001Z,94726.00
2023-05-09T03:05:13.270Z,94730.00
2023-05-09T03:06:13.075Z,94728.00
2023-05-09T03:07:13.221Z,94728.00
2023-05-09T03:08:13.181Z,94726.00
2023-05-09T03:09:13.294Z,94726.00
2023-05-09T03:10:13.269Z,94726.00
2023-05-09T03:11:13.323Z,94726.00
2023-05-09T03:12:13.361Z,94726.00
2023-05-09T03:13:13.529Z,94726.00
2023-05-09T03:14:13.502Z,94726.00
2023-05-09T03:15:13.749Z,94726.00
2023-05-09T03:16:13.582Z,94728.00
2023-05-09T03:17:13.588Z,94730.00
2023-05-09T03:18:13.628Z,94728.00
2023-05-09T03:19:13.695Z,94726.00
2023-05-09T03:20:13.740Z,94726.00
2023-05-09T03:21:13.798Z,94726.00
2023-05-09T03:22:13.846Z,94728.00
2023-05-09T03:23:13.965Z,94728.00
2023-05-09T03:24:13.967Z,94726.00
2023-05-09T03:25:14.184Z,94726.00
2023-05-09T03:26:14.005Z,94724.00
2023-05-09T03:27:14.028Z,94722.00
2023-05-09T03:28:14.093Z,94720.00
2023-05-09T03:29:14.137Z,94720.00
2023-05-09T03:30:14.158Z,94717.00
2023-05-09T03:31:14.221Z,94715.00
2023-05-09T03:32:15.314Z,94715.00
2023-05-09T03:33:14.305Z,94715.00
2023-05-09T03:34:14.488Z,94715.00
2023-05-09T03:35:14.596Z,94715.00
2023-05-09T03:36:14.457Z,94715.00
2023-05-09T03:37:14.484Z,94713.00
2023-05-09T03:38:14.534Z,94711.00
2023-05-09T03:39:14.672Z,94713.00
2023-05-09T03:40:14.637Z,94711.00
2023-05-09T03:41:14.792Z,94709.00
2023-05-09T03:42:14.713Z,94715.00
2023-05-09T03:43:14.764Z,94715.00
2023-05-09T03:44:14.822Z,94713.00
2023-05-09T03:45:15.133Z,94713.00
2023-05-09T03:46:14.916Z,94715.00
2023-05-09T03:47:14.944Z,94713.00
2023-05-09T03:48:14.971Z,94713.00
2023-05-09T03:49:15.028Z,94713.00
2023-05-09T03:50:15.079Z,94713.00
2023-05-09T03:51:15.102Z,94715.00
2023-05-09T03:52:15.187Z,94713.00
2023-05-09T03:53:15.182Z,94713.00
2023-05-09T03:54:15.236Z,94715.00
2023-05-09T03:55:15.620Z,94715.00
2023-05-09T03:56:15.311Z,94713.00
2023-05-09T03:57:15.370Z,94711.00
2023-05-09T03:58:15.396Z,94709.00
2023-05-09T03:59:15.452Z,94709.00
2023-05-09T04:00:15.514Z,94711.00
2023-05-09T04:01:15.519Z,94711.00
2023-05-09T04:02:15.613Z,94709.00
2023-05-09T04:03:15.682Z,94709.00
2023-05-09T04:04:15.661Z,94711.00
2023-05-09T04:05:16.013Z,94711.00
2023-05-09T04:06:15.770Z,94715.00
2023-05-09T04:07:15.804Z,94713.00
2023-05-09T04:08:15.878Z,94715.00
2023-05-09T04:09:15.907Z,94715.00
2023-05-09T04:10:15.952Z,94715.00
2023-05-09T04:11:16.075Z,94713.00
2023-05-09T04:12:16.035Z,94713.00
2023-05-09T04:13:16.147Z,94711.00
2023-05-09T04:14:16.116Z,94713.00
2023-05-09T04:15:16.415Z,94713.00
2023-05-09T04:16:16.244Z,94711.00
2023-05-09T04:17:16.270Z,94713.00
2023-05-09T04:18:16.320Z,94709.00
2023-05-09T04:19:16.555Z,94713.00
2023-05-09T04:20:16.415Z,94713.00
2023-05-09T04:21:16.449Z,94713.00
2023-05-09T04:22:16.515Z,94713.00
2023-05-09T04:23:16.530Z,94715.00
2023-05-09T04:24:16.597Z,94718.00
2023-05-09T04:25:16.755Z,94717.00
2023-05-09T04:26:16.677Z,94718.00
2023-05-09T04:27:16.822Z,94717.00
2023-05-09T04:28:16.758Z,94722.00
2023-05-09T04:29:16.808Z,94718.00
2023-05-09T04:30:16.852Z,94720.00
2023-05-09T04:31:17.015Z,94720.00
2023-05-09T04:32:17.008Z,94720.00
2023-05-09T04:33:16.997Z,94717.00
2023-05-09T04:34:17.039Z,94718.00
2023-05-09T04:35:19.832Z,94717.00
2023-05-09T04:36:17.091Z,94715.00
2023-05-09T04:37:17.109Z,94715.00
2023-05-09T04:38:17.081Z,94711.00
2023-05-09T04:39:17.061Z,94711.00
2023-05-09T04:40:17.068Z,94718.00
2023-05-09T04:41:17.041Z,94715.00
2023-05-09T04:42:17.064Z,94713.00
2023-05-09T04:43:17.115Z,94717.00
2023-05-09T04:44:17.023Z,94713.00
2023-05-09T04:45:17.275Z,94715.00
2023-05-09T04:46:17.035Z,94715.00
2023-05-09T04:47:17.016Z,94713.00
2023-05-09T04:48:17.019Z,94713.00
2023-05-09T04:49:17.011Z,94715.00
2023-05-09T04:50:16.987Z,94715.00
2023-05-09T04:51:17.050Z,94720.00
2023-05-09T04:52:16.996Z,94715.00
2023-05-09T04:53:16.990Z,94718.00
2023-05-09T04:54:16.970Z,94722.00
2023-05-09T04:55:17.191Z,94724.00
2023-05-09T04:56:16.975Z,94718.00
2023-05-09T04:57:18.804Z,94718.00
2023-05-09T04:58:16.933Z,94720.00
2023-05-09T04:59:17.013Z,94720.00
2023-05-09T05:00:16.928Z,94717.00
2023-05-09T05:01:16.952Z,94717.00
2023-05-09T05:02:16.926Z,94715.00
2023-05-09T05:03:17.006Z,94711.00
2023-05-09T05:04:17.033Z,94711.00
2023-05-09T05:05:17.075Z,94711.00
2023-05-09T05:06:17.102Z,94711.00
2023-05-09T05:07:17.154Z,94709.00
2023-05-09T05:08:17.205Z,94709.00
2023-05-09T05:09:17.233Z,94709.00
2023-05-09T05:10:17.294Z,94711.00
2023-05-09T05:11:17.317Z,94711.00
2023-05-09T05:12:17.381Z,94711.00
2023-05-09T05:13:17.508Z,94711.00
2023-05-09T05:14:17.463Z,94711.00
2023-05-09T05:15:17.577Z,94709.00
2023-05-09T05:16:17.638Z,94713.00
2023-05-09T05:17:17.599Z,94709.00
2023-05-09T05:18:17.633Z,94711.00
2023-05-09T05:19:17.677Z,94711.00
2023-05-09T05:20:17.723Z,94711.00
2023-05-09T05:21:17.754Z,94713.00
2023-05-09T05:22:17.807Z,94715.00
2023-05-09T05:23:17.838Z,94711.00
2023-05-09T05:24:17.894Z,94713.00
2023-05-09T05:25:17.928Z,94711.00
2023-05-09T05:26:18.030Z,94711.00
2023-05-09T05:27:18.023Z,94709.00
2023-05-09T05:28:18.062Z,94709.00
2023-05-09T05:29:18.164Z,94709.00
2023-05-09T05:30:18.155Z,94711.00
2023-05-09T05:31:18.284Z,94711.00
2023-05-09T05:32:18.237Z,94715.00
2023-05-09T05:33:18.288Z,94715.00
2023-05-09T05:34:18.301Z,94715.00
2023-05-09T05:35:18.356Z,94717.00
2023-05-09T05:36:18.357Z,94715.00
2023-05-09T05:37:18.396Z,94711.00
2023-05-09T05:38:18.533Z,94715.00
2023-05-09T05:39:18.446Z,94717.00
2023-05-09T05:40:18.457Z,94715.00
2023-05-09T05:41:18.472Z,94709.00
2023-05-09T05:42:18.486Z,94711.00
2023-05-09T05:43:18.512Z,94711.00
2023-05-09T05:44:18.530Z,94709.00
2023-05-09T05:45:18.566Z,94711.00
2023-05-09T05:46:18.658Z,94711.00
2023-05-09T05:47:18.640Z,94711.00
2023-05-09T05:48:18.556Z,94713.00
2023-05-09T05:49:18.567Z,94711.00
2023-05-09T05:50:18.596Z,94715.00
2023-05-09T05:51:18.627Z,94715.00
2023-05-09T05:52:18.655Z,94715.00
2023-05-09T05:53:18.660Z,94717.00
2023-05-09T05:54:18.681Z,94713.00
2023-05-09T05:55:18.715Z,94713.00
2023-05-09T05:56:18.728Z,94709.00
2023-05-09T05:57:18.769Z,94711.00
2023-05-09T05:58:18.821Z,94709.00
2023-05-09T05:59:18.831Z,94703.00
2023-05-09T06:00:18.839Z,94701.00
2023-05-09T06:01:18.855Z,94703.00
2023-05-09T06:02:18.915Z,94701.00
2023-05-09T06:03:19.110Z,94701.00
2023-05-09T06:04:18.960Z,94701.00
2023-05-09T06:05:18.981Z,94703.00
2023-05-09T06:06:19.088Z,94703.00
2023-05-09T06:07:19.031Z,94705.00
2023-05-09T06:08:19.051Z,94705.00
2023-05-09T06:09:19.093Z,94707.00
2023-05-09T06:10:19.169Z,94707.00
2023-05-09T06:11:19.171Z,94705.00
2023-05-09T06:12:19.179Z,94705.00
2023-05-09T06:13:19.677Z,94707.00
2023-05-09T06:14:19.533Z,94705.00
2023-05-09T06:15:19.262Z,94707.00
2023-05-09T06:16:20.506Z,94709.00
2023-05-09T06:17:19.521Z,94707.00
2023-05-09T06:18:19.363Z,94705.00
2023-05-09T06:19:19.627Z,94709.00
2023-05-09T06:20:19.414Z,94707.00
2023-05-09T06:21:19.460Z,94709.00
2023-05-09T06:22:19.500Z,94711.00
2023-05-09T06:23:19.582Z,94709.00
2023-05-09T06:24:28.026Z,94711.00
2023-05-09T06:25:20.579Z,94711.00
2023-05-09T06:26:19.564Z,94709.00
2023-05-09T06:27:19.557Z,94705.00
2023-05-09T06:28:19.577Z,94707.00
2023-05-09T06:29:19.533Z,94703.00
2023-05-09T06:30:26.241Z,94703.00
2023-05-09T06:31:20.660Z,94703.00
2023-05-09T06:32:19.566Z,94701.00
2023-05-09T06:33:19.528Z,94695.00
2023-05-09T06:34:20.057Z,94695.00
2023-05-09T06:35:19.592Z,94697.00
2023-05-09T06:36:19.522Z,94693.00
2023-05-09T06:37:19.523Z,94697.00
2023-05-09T06:38:19.532Z,94693.00
2023-05-09T06:39:19.574Z,94691.00
2023-05-09T06:40:19.466Z,94693.00
2023-05-09T06:41:19.470Z,94687.00
2023-05-09T06:42:19.463Z,94687.00
2023-05-09T06:43:19.450Z,94687.00
2023-05-09T06:44:19.456Z,94683.00
2023-05-09T06:45:19.600Z,94683.00
2023-05-09T06:46:19.480Z,94683.00
2023-05-09T06:47:19.411Z,94685.00
2023-05-09T06:48:19.561Z,94685.00
2023-05-09T06:49:19.413Z,94681.00
2023-05-09T06:50:19.418Z,94681.00
2023-05-09T06:51:19.544Z,94679.00
2023-05-09T06:52:19.472Z,94679.00
2023-05-09T06:53:19.570Z,94681.00
2023-05-09T06:54:19.529Z,94679.00
2023-05-09T06:55:19.560Z,94675.00
2023-05-09T06:56:20.113Z,94679.00
2023-05-09T06:57:19.720Z,94677.00
2023-05-09T06:58:20.202Z,94677.00
2023-05-09T06:59:20.073Z,94675.00
2023-05-09T07:00:19.705Z,94675.00
2023-05-09T07:01:19.890Z,94677.00
2023-05-09T07:02:19.793Z,94673.00
2023-05-09T07:03:19.867Z,94671.00
2023-05-09T07:04:19.820Z,94671.00
2023-05-09T07:05:19.904Z,94673.00
2023-05-09T07:06:19.881Z,94669.00
2023-05-09T07:07:19.992Z,94673.00
2023-05-09T07:08:19.933Z,94671.00
2023-05-09T07:09:19.959Z,94673.00
2023-05-09T07:10:19.934Z,94675.00
2023-05-09T07:11:19.962Z,94679.00
2023-05-09T07:12:19.977Z,94675.00
2023-05-09T07:13:20.077Z,94677.00
2023-05-09T07:14:20.092Z,94673.00
2023-05-09T07:15:32.397Z,94671.00
2023-05-09T07:16:21.073Z,94667.00
2023-05-09T07:17:23.417Z,94663.00
2023-05-09T07:18:20.010Z,94663.00
2023-05-09T07:19:20.101Z,94667.00
2023-05-09T07:20:19.981Z,94667.00
2023-05-09T07:21:19.965Z,94665.00
2023-05-09T07:22:19.986Z,94667.00
2023-05-09T07:23:20.058Z,94663.00
2023-05-09T07:24:20.086Z,94663.00
2023-05-09T07:25:19.961Z,94662.00
2023-05-09T07:26:19.967Z,94658.00
2023-05-09T07:27:19.928Z,94656.00
2023-05-09T07:28:19.932Z,94656.00
2023-05-09T07:29:20.070Z,94662.00
2023-05-09T07:30:19.918Z,94658.00
2023-05-09T07:31:19.910Z,94658.00
2023-05-09T07:32:19.920Z,94656.00
2023-05-09T07:33:20.078Z,94656.00
2023-05-09T07:34:20.096Z,94656.00
2023-05-09T07:35:19.895Z,94650.00
2023-05-09T07:36:19.875Z,94652.00
2023-05-09T07:37:19.865Z,94652.00
2023-05-09T07:38:20.094Z,94650.00
2023-05-09T07:39:20.164Z,94646.00
2023-05-09T07:40:19.842Z,94652.00
2023-05-09T07:41:19.845Z,94650.00
2023-05-09T07:42:19.841Z,94646.00
2023-05-09T07:43:19.812Z,94646.00
2023-05-09T07:44:19.831Z,94644.00
2023-05-09T07:45:22.024Z,94644.00
2023-05-09T07:46:19.915Z,94640.00
2023-05-09T07:47:19.796Z,94640.00
2023-05-09T07:48:19.804Z,94642.00
2023-05-09T07:49:19.777Z,94640.00
2023-05-09T07:50:19.764Z,94636.00
2023-05-09T07:51:19.777Z,94638.00
2023-05-09T07:52:19.769Z,94624.00
2023-05-09T07:53:19.734Z,94632.00
2023-05-09T07:54:20.085Z,94624.00
2023-05-09T07:55:19.821Z,94624.00
2023-05-09T07:56:19.726Z,94620.00
2023-05-09T07:57:19.725Z,94617.00
2023-05-09T07:58:19.736Z,94615.00
2023-05-09T07:59:20.100Z,94617.00
2023-05-09T08:00:19.703Z,94613.00
2023-05-09T08:01:19.699Z,94611.00
2023-05-09T08:02:19.730Z,94605.00
2023-05-09T08:03:19.815Z,94609.00
2023-05-09T08:04:19.719Z,94605.00
2023-05-09T08:05:19.657Z,94605.00
2023-05-09T08:06:19.657Z,94605.00
2023-05-09T08:07:19.654Z,94605.00
2023-05-09T08:08:19.636Z,94609.00
2023-05-09T08:09:19.655Z,94601.00
2023-05-09T08:10:19.642Z,94599.00
2023-05-09T08:11:19.701Z,94597.00
2023-05-09T08:12:19.635Z,94597.00
2023-05-09T08:13:19.636Z,94595.00
2023-05-09T08:14:19.616Z,94591.00
2023-05-09T08:15:19.603Z,94587.00
2023-05-09T08:16:19.694Z,94585.00
2023-05-09T08:17:19.620Z,94585.00
2023-05-09T08:18:19.580Z,94581.00
2023-05-09T08:19:19.612Z,94581.00
2023-05-09T08:20:19.585Z,94581.00
2023-05-09T08:21:22.090Z,94581.00
2023-05-09T08:22:19.824Z,94577.00
2023-05-09T08:23:20.116Z,94577.00
2023-05-09T08:24:19.853Z,94577.00
2023-05-09T08:25:19.864Z,94573.00
2023-05-09T08:26:19.887Z,94571.00
2023-05-09T08:27:19.940Z,94569.00
2023-05-09T08:28:21.677Z,94567.00
2023-05-09T08:29:19.978Z,94565.00
2023-05-09T08:30:20.013Z,94558.00
2023-05-09T08:31:20.130Z,94560.00
2023-05-09T08:32:20.116Z,94554.00
2023-05-09T08:33:20.116Z,94552.00
2023-05-09T08:34:20.170Z,94554.00
2023-05-09T08:35:20.200Z,94552.00
2023-05-09T08:36:20.293Z,94550.00
2023-05-09T08:37:20.311Z,94550.00
2023-05-09T08:38:20.404Z,94548.00
2023-05-09T08:39:20.666Z,94548.00
2023-05-09T08:40:20.500Z,94546.00
2023-05-09T08:41:20.557Z,94544.00
2023-05-09T08:42:20.596Z,94544.00
2023-05-09T08:43:20.730Z,94548.00
2023-05-09T08:44:21.160Z,94550.00
2023-05-09T08:45:20.728Z,94548.00
2023-05-09T08:46:20.798Z,94548.00
2023-05-09T08:47:20.818Z,94548.00
2023-05-09T08:48:20.803Z,94546.00
2023-05-09T08:49:21.125Z,94546.00
2023-05-09T08:50:20.955Z,94542.00
2023-05-09T08:51:20.904Z,94540.00
2023-05-09T08:52:21.047Z,94532.00
2023-05-09T08:53:20.958Z,94530.00
2023-05-09T08:54:22.899Z,94530.00
2023-05-09T08:55:21.140Z,94528.00
2023-05-09T08:56:21.017Z,94528.00
2023-05-09T08:57:21.046Z,94524.00
2023-05-09T08:58:21.089Z,94524.00
2023-05-09T08:59:21.210Z,94520.00
2023-05-09T09:00:21.378Z,94522.00
2023-05-09T09:01:21.177Z,94520.00
2023-05-09T09:02:21.170Z,94518.00
2023-05-09T09:03:21.185Z,94515.00
2023-05-09T09:04:21.659Z,94513.00
2023-05-09T09:05:40.283Z,94509.00
2023-05-09T09:06:22.211Z,94509.00
2023-05-09T09:07:21.195Z,94507.00
2023-05-09T09:08:21.195Z,94507.00
2023-05-09T09:09:21.196Z,94505.00
2023-05-09T09:10:21.216Z,94503.00
2023-05-09T09:11:21.158Z,94503.00
2023-05-09T09:12:21.151Z,94505.00
2023-05-09T09:13:21.208Z,94501.00
2023-05-09T09:14:21.621Z,94503.00
2023-05-09T09:15:21.231Z,94501.00
2023-05-09T09:16:21.208Z,94501.00
2023-05-09T09:17:21.281Z,94495.00
2023-05-09T09:18:21.114Z,94493.00
2023-05-09T09:19:21.127Z,94493.00
2023-05-09T09:20:21.177Z,94489.00
2023-05-09T09:21:21.113Z,94487.00
2023-05-09T09:22:21.110Z,94487.00
2023-05-09T09:23:21.142Z,94483.00
2023-05-09T09:24:21.093Z,94483.00
2023-05-09T09:25:21.083Z,94477.00
2023-05-09T09:26:21.069Z,94477.00
2023-05-09T09:27:21.074Z,94471.00
2023-05-09T09:28:21.117Z,94471.00
2023-05-09T09:29:21.638Z,94468.00
2023-05-09T09:30:21.190Z,94468.00
2023-05-09T09:31:21.261Z,94466.00
2023-05-09T09:32:21.246Z,94466.00
2023-05-09T09:33:21.248Z,94466.00
2023-05-09T09:34:21.676Z,94462.00
2023-05-09T09:35:21.265Z,94462.00
2023-05-09T09:36:21.298Z,94458.00
2023-05-09T09:37:21.312Z,94456.00
2023-05-09T09:38:21.329Z,94452.00
2023-05-09T09:39:21.343Z,94452.00
2023-05-09T09:40:21.359Z,94448.00
2023-05-09T09:41:21.405Z,94450.00
2023-05-09T09:42:21.405Z,94442.00
2023-05-09T09:43:21.434Z,94442.00
2023-05-09T09:44:21.643Z,94442.00
2023-05-09T09:45:21.502Z,94440.00
2023-05-09T09:46:21.563Z,94436.00
2023-05-09T09:47:21.571Z,94428.00
2023-05-09T09:48:21.646Z,94426.00
2023-05-09T09:49:21.653Z,94422.00
2023-05-09T09:50:21.532Z,94426.00
2023-05-09T09:51:21.578Z,94422.00
2023-05-09T09:52:21.550Z,94422.00
2023-05-09T09:53:21.557Z,94420.00
2023-05-09T09:54:22.134Z,94422.00
2023-05-09T09:55:21.597Z,94417.00
2023-05-09T09:56:21.615Z,94415.00
2023-05-09T09:57:21.638Z,94413.00
2023-05-09T09:58:21.609Z,94411.00
2023-05-09T09:59:21.611Z,94409.00
2023-05-09T10:00:21.607Z,94407.00
2023-05-09T10:01:21.800Z,94407.00
2023-05-09T10:02:21.605Z,94405.00
2023-05-09T10:03:21.752Z,94403.00
2023-05-09T10:04:21.666Z,94403.00
2023-05-09T10:05:21.630Z,94403.00
2023-05-09T10:06:21.612Z,94401.00
2023-05-09T10:07:21.635Z,94399.00
2023-05-09T10:08:21.631Z,94397.00
2023-05-09T10:09:21.629Z,94399.00
2023-05-09T10:10:21.695Z,94401.00
2023-05-09T10:11:21.625Z,94399.00
2023-05-09T10:12:21.599Z,94401.00
2023-05-09T10:13:21.696Z,94395.00
2023-05-09T10:14:21.646Z,94391.00
2023-05-09T10:15:21.629Z,94389.00
2023-05-09T10:16:35.600Z,94387.00
2023-05-09T10:17:22.932Z,94368.00
2023-05-09T10:18:21.862Z,94364.00
2023-05-09T10:19:21.758Z,94362.00
2023-05-09T10:20:21.608Z,94356.00
2023-05-09T10:21:21.595Z,94354.00
2023-05-09T10:22:21.595Z,94354.00
2023-05-09T10:23:21.607Z,94352.00
2023-05-09T10:24:21.649Z,94352.00
2023-05-09T10:25:21.629Z,94348.00
2023-05-09T10:26:21.575Z,94350.00
2023-05-09T10:27:21.598Z,94346.00
2023-05-09T10:28:21.581Z,94344.00
2023-05-09T10:29:21.579Z,94340.00
2023-05-09T10:30:21.569Z,94342.00
2023-05-09T10:31:21.613Z,94352.00
2023-05-09T10:32:21.553Z,94348.00
2023-05-09T10:33:21.554Z,94348.00
2023-05-09T10:34:21.649Z,94344.00
2023-05-09T10:35:21.635Z,94338.00
2023-05-09T10:36:21.530Z,94340.00
2023-05-09T10:37:21.557Z,94336.00
2023-05-09T10:38:21.594Z,94336.00
2023-05-09T10:39:21.660Z,94332.00
2023-05-09T10:40:21.550Z,94330.00
2023-05-09T10:41:21.567Z,94328.00
2023-05-09T10:42:21.579Z,94330.00
2023-05-09T10:43:21.580Z,94328.00
2023-05-09T10:44:21.698Z,94324.00
2023-05-09T10:45:21.587Z,94319.00
2023-05-09T10:46:21.614Z,94321.00
2023-05-09T10:47:21.610Z,94319.00
2023-05-09T10:48:21.597Z,94313.00
2023-05-09T10:49:21.665Z,94311.00
2023-05-09T10:50:21.642Z,94309.00
2023-05-09T10:51:21.680Z,94295.00
2023-05-09T10:52:21.594Z,94291.00
2023-05-09T10:53:21.613Z,94291.00
2023-05-09T10:54:21.651Z,94287.00
2023-05-09T10:55:21.610Z,94283.00
2023-05-09T10:56:21.625Z,94283.00
2023-05-09T10:57:21.597Z,94281.00
2023-05-09T10:58:21.578Z,94281.00
2023-05-09T10:59:21.668Z,94279.00
2023-05-09T11:00:21.580Z,94277.00
2023-05-09T11:01:21.649Z,94274.00
2023-05-09T11:02:21.612Z,94277.00
2023-05-09T11:03:21.713Z,94272.00
2023-05-09T11:04:21.686Z,94270.00
2023-05-09T11:05:21.590Z,94270.00
2023-05-09T11:06:21.614Z,94266.00
2023-05-09T11:07:21.683Z,94262.00
2023-05-09T11:08:21.570Z,94262.00
2023-05-09T11:09:21.600Z,94262.00
2023-05-09T11:10:21.591Z,94260.00
2023-05-09T11:11:21.598Z,94258.00
2023-05-09T11:12:21.605Z,94256.00
2023-05-09T11:13:21.644Z,94252.00
2023-05-09T11:14:21.678Z,94248.00
2023-05-09T11:15:21.693Z,94250.00
2023-05-09T11:16:21.614Z,94248.00
2023-05-09T11:17:21.691Z,94248.00
2023-05-09T11:18:21.625Z,94246.00
2023-05-09T11:19:21.622Z,94244.00
2023-05-09T11:20:21.637Z,94240.00
2023-05-09T11:21:21.678Z,94242.00
2023-05-09T11:22:21.687Z,94236.00
2023-05-09T11:23:21.771Z,94230.00
2023-05-09T11:24:21.689Z,94228.00
2023-05-09T11:25:21.711Z,94224.00
2023-05-09T11:26:21.711Z,94222.00
2023-05-09T11:27:21.744Z,94224.00
2023-05-09T11:28:21.781Z,94222.00
2023-05-09T11:29:21.763Z,94222.00
2023-05-09T11:30:21.809Z,94224.00
2023-05-09T11:31:21.843Z,94219.00
2023-05-09T11:32:21.896Z,94220.00
2023-05-09T11:33:21.851Z,94219.00
2023-05-09T11:34:21.882Z,94215.00
2023-05-09T11:35:21.895Z,94215.00
2023-05-09T11:36:21.924Z,94211.00
2023-05-09T11:37:21.935Z,94209.00
2023-05-09T11:38:21.977Z,94209.00
2023-05-09T11:39:22.065Z,94207.00
2023-05-09T11:40:22.035Z,94207.00
2023-05-09T11:41:22.001Z,94203.00
2023-05-09T11:42:22.005Z,94201.00
2023-05-09T11:43:22.014Z,94195.00
2023-05-09T11:44:22.050Z,94193.00